Time;durP1;ratioP1;P1;durP2;ratioP2;P2;SDS_P1;SDS_P2;PMS_P1;PMS_P2;Temp;Humidity;BMP_temperature;BMP_pressure;BME280_temperature;BME280_humidity;BME280_pressure;Samples;Min_cycle;Max_cycle;Signal;HPM_P1;HPM_P2
2022/06/22 00:01:41;;;;;;;5.05;3.42;;;;;;;;;;5053781;28;20202;-31
2022/06/22 00:04:14;;;;;;;5.22;3.65;;;;;;;;;;5044485;28;20198;-29
2022/06/22 00:06:43;;;;;;;4.78;4.05;;;;;;;;;;5051323;28;20224;-31
2022/06/22 00:11:44;;;;;;;7.45;3.30;;;;;;;;;;5021543;28;20215;-34
2022/06/22 00:14:18;;;;;;;5.15;3.78;;;;;;;;;;5026547;28;20203;-37
2022/06/22 00:16:49;;;;;;;8.15;3.50;;;;;;;;;;5033403;28;20222;-37
2022/06/22 00:19:23;;;;;;;3.50;3.10;;;;;;;;;;5020430;28;20213;-37
2022/06/22 00:21:51;;;;;;;3.78;3.42;;;;;;;;;;5031993;28;20220;-39
2022/06/22 00:24:33;;;;;;;5.07;3.35;;;;;;;;;;5033967;28;20202;-33
2022/06/22 00:27:01;;;;;;;4.70;3.63;;;;;;;;;;5025468;28;20240;-36
2022/06/22 00:29:34;;;;;;;4.00;3.60;;;;;;;;;;5030319;28;20206;-33
2022/06/22 00:32:03;;;;;;;5.82;3.40;;;;;;;;;;5031886;28;20206;-37
2022/06/22 00:34:32;;;;;;;4.03;3.33;;;;;;;;;;5019960;28;20208;-36
2022/06/22 00:37:00;;;;;;;3.38;3.17;;;;;;;;;;5032929;28;20218;-38
2022/06/22 00:39:32;;;;;;;3.85;3.45;;;;;;;;;;5033263;28;20210;-36
2022/06/22 00:42:01;;;;;;;3.63;3.28;;;;;;;;;;5022214;28;20202;-35
2022/06/22 00:44:30;;;;;;;4.28;3.20;;;;;;;;;;5032261;28;20205;-36
2022/06/22 00:47:00;;;;;;;3.30;3.10;;;;;;;;;;5031034;28;20218;-34
2022/06/22 00:49:28;;;;;;;4.18;3.10;;;;;;;;;;5023842;28;20211;-40
2022/06/22 00:51:59;;;;;;;8.68;3.38;;;;;;;;;;5031983;28;20203;-37
2022/06/22 00:54:27;;;;;;;5.10;3.33;;;;;;;;;;5032916;28;20199;-38
2022/06/22 00:56:56;;;;;;;4.20;3.35;;;;;;;;;;5029638;28;20223;-34
2022/06/22 00:59:32;;;;;;;3.97;3.35;;;;;;;;;;5016636;28;20211;-38
2022/06/22 01:02:00;;;;;;;4.15;3.63;;;;;;;;;;5019319;28;20209;-38
2022/06/22 01:04:31;;;;;;;6.68;3.15;;;;;;;;;;5026107;28;20234;-38
2022/06/22 01:07:02;;;;;;;3.80;3.27;;;;;;;;;;5032008;28;20226;-36
2022/06/22 01:09:34;;;;;;;4.47;3.13;;;;;;;;;;5031733;28;20213;-30
2022/06/22 01:12:18;;;;;;;3.30;3.00;;;;;;;;;;5024861;28;20213;-38
2022/06/22 01:14:47;;;;;;;3.40;3.10;;;;;;;;;;5026422;28;20241;-34
2022/06/22 01:17:18;;;;;;;4.30;3.20;;;;;;;;;;5027092;28;20230;-33
2022/06/22 01:19:49;;;;;;;3.15;2.90;;;;;;;;;;5024646;28;20206;-31
2022/06/22 01:22:23;;;;;;;4.23;3.20;;;;;;;;;;5032277;28;20199;-37
2022/06/22 01:24:53;;;;;;;3.58;3.28;;;;;;;;;;5032125;28;20205;-38
2022/06/22 01:27:25;;;;;;;4.93;3.20;;;;;;;;;;5027643;28;20222;-36
2022/06/22 01:29:53;;;;;;;4.00;3.17;;;;;;;;;;5024439;28;20210;-31
2022/06/22 01:32:22;;;;;;;5.63;3.23;;;;;;;;;;5027044;28;20214;-33
2022/06/22 01:34:50;;;;;;;3.67;2.90;;;;;;;;;;5027711;28;20206;-31
2022/06/22 01:37:20;;;;;;;3.57;3.27;;;;;;;;;;5031362;28;20210;-35
2022/06/22 01:39:47;;;;;;;3.80;3.00;;;;;;;;;;5031484;28;20208;-37
2022/06/22 01:42:18;;;;;;;3.50;2.53;;;;;;;;;;5025989;28;20215;-39
2022/06/22 01:44:50;;;;;;;4.93;3.07;;;;;;;;;;5015273;28;20214;-37
2022/06/22 01:47:22;;;;;;;5.20;3.13;;;;;;;;;;5025907;28;20226;-34
2022/06/22 01:49:52;;;;;;;3.63;3.33;;;;;;;;;;5030075;28;20209;-38
2022/06/22 01:52:24;;;;;;;4.47;3.23;;;;;;;;;;5031482;28;20225;-32
2022/06/22 01:54:55;;;;;;;4.73;3.13;;;;;;;;;;5031757;28;20217;-36
2022/06/22 01:57:24;;;;;;;5.23;3.33;;;;;;;;;;5018604;28;20218;-34
2022/06/22 01:59:55;;;;;;;3.97;3.05;;;;;;;;;;5030691;28;20202;-34
2022/06/22 02:02:24;;;;;;;4.03;3.10;;;;;;;;;;5027016;28;20209;-37
2022/06/22 02:04:52;;;;;;;5.30;3.33;;;;;;;;;;5028603;28;20218;-34
2022/06/22 02:10:13;;;;;;;3.87;2.77;;;;;;;;;;5028575;28;20233;-38
2022/06/22 02:12:43;;;;;;;3.53;3.10;;;;;;;;;;5016013;28;20343;-34
2022/06/22 02:15:17;;;;;;;4.57;3.10;;;;;;;;;;5031197;28;20198;-36
2022/06/22 02:17:45;;;;;;;3.63;3.20;;;;;;;;;;5024381;28;20223;-38
2022/06/22 02:20:30;;;;;;;4.13;3.00;;;;;;;;;;5022421;28;20203;-33
2022/06/22 02:23:00;;;;;;;7.33;3.27;;;;;;;;;;5031526;28;20198;-29
2022/06/22 02:25:29;;;;;;;3.30;2.70;;;;;;;;;;5033383;28;20225;-40
2022/06/22 02:27:56;;;;;;;4.30;3.20;;;;;;;;;;5027576;28;20237;-37
2022/06/22 02:30:25;;;;;;;4.43;2.93;;;;;;;;;;5032870;28;20199;-35
2022/06/22 02:32:52;;;;;;;4.07;3.03;;;;;;;;;;5029047;28;20215;-36
2022/06/22 02:35:19;;;;;;;5.32;2.95;;;;;;;;;;5025231;28;20199;-42
2022/06/22 02:37:49;;;;;;;6.57;2.93;;;;;;;;;;5030009;28;20223;-32
2022/06/22 02:40:18;;;;;;;3.20;3.00;;;;;;;;;;5025345;28;20206;-34
2022/06/22 02:45:32;;;;;;;3.40;3.00;;;;;;;;;;5030062;28;20245;-40
2022/06/22 02:48:00;;;;;;;3.40;3.10;;;;;;;;;;5021459;28;20229;-36
2022/06/22 02:50:35;;;;;;;3.33;2.93;;;;;;;;;;5025730;28;20202;-37
2022/06/22 02:53:03;;;;;;;3.53;3.23;;;;;;;;;;5022736;28;20205;-36
2022/06/22 02:55:34;;;;;;;3.17;2.97;;;;;;;;;;5027759;28;20213;-37
2022/06/22 02:58:02;;;;;;;3.53;2.80;;;;;;;;;;5027919;28;20198;-33
2022/06/22 03:00:31;;;;;;;3.33;2.87;;;;;;;;;;5029926;28;20218;-39
2022/06/22 03:03:01;;;;;;;6.77;3.43;;;;;;;;;;5021775;28;20198;-34
2022/06/22 03:05:28;;;;;;;6.63;3.70;;;;;;;;;;5021122;28;20203;-34
2022/06/22 03:07:56;;;;;;;4.67;2.90;;;;;;;;;;5029657;28;20230;-39
2022/06/22 03:10:25;;;;;;;7.10;3.70;;;;;;;;;;5030213;28;20305;-37
2022/06/22 03:12:54;;;;;;;3.63;3.33;;;;;;;;;;5016223;28;20218;-32
2022/06/22 03:15:23;;;;;;;3.83;3.33;;;;;;;;;;5024655;28;20202;-37
2022/06/22 03:17:50;;;;;;;3.30;3.00;;;;;;;;;;5022909;28;20313;-36
2022/06/22 03:20:20;;;;;;;4.80;3.90;;;;;;;;;;5019544;28;20210;-37
2022/06/22 03:22:49;;;;;;;3.40;3.10;;;;;;;;;;5030304;28;20210;-36
2022/06/22 03:25:19;;;;;;;5.53;3.27;;;;;;;;;;5026687;28;20214;-33
2022/06/22 03:27:49;;;;;;;5.60;3.13;;;;;;;;;;5017324;28;20241;-33
2022/06/22 03:30:18;;;;;;;4.67;3.67;;;;;;;;;;5029508;28;20202;-34
2022/06/22 03:32:48;;;;;;;5.87;3.73;;;;;;;;;;5023863;28;20206;-41
2022/06/22 03:35:18;;;;;;;8.73;3.67;;;;;;;;;;5023929;28;20225;-33
2022/06/22 03:37:49;;;;;;;7.67;3.80;;;;;;;;;;5029550;28;20253;-32
2022/06/22 03:40:19;;;;;;;5.77;3.70;;;;;;;;;;5029439;28;20217;-35
2022/06/22 03:42:47;;;;;;;4.40;3.70;;;;;;;;;;5019152;28;20309;-35
2022/06/22 03:45:16;;;;;;;5.57;4.07;;;;;;;;;;5018399;28;20217;-33
2022/06/22 03:47:46;;;;;;;4.40;3.90;;;;;;;;;;5024596;28;20231;-34
2022/06/22 03:50:18;;;;;;;7.17;4.17;;;;;;;;;;5021461;28;20198;-31
2022/06/22 03:52:47;;;;;;;4.47;3.47;;;;;;;;;;5031789;28;20194;-34
2022/06/22 03:55:17;;;;;;;4.83;3.43;;;;;;;;;;5031196;28;20213;-36
2022/06/22 03:57:45;;;;;;;6.37;3.80;;;;;;;;;;5029503;28;20218;-37
2022/06/22 04:00:14;;;;;;;4.83;3.80;;;;;;;;;;5031689;28;20199;-38
2022/06/22 04:02:41;;;;;;;5.50;3.83;;;;;;;;;;5025257;28;20210;-35
2022/06/22 04:05:13;;;;;;;7.57;3.50;;;;;;;;;;5021563;28;20198;-32
2022/06/22 04:07:41;;;;;;;3.90;3.40;;;;;;;;;;5031706;28;20222;-32
2022/06/22 04:10:15;;;;;;;5.23;3.60;;;;;;;;;;5024285;28;20215;-30
2022/06/22 04:12:47;;;;;;;3.90;3.20;;;;;;;;;;5027778;28;20209;-31
2022/06/22 04:15:21;;;;;;;4.67;3.60;;;;;;;;;;5031270;28;20199;-36
2022/06/22 04:17:50;;;;;;;4.57;3.60;;;;;;;;;;5026235;28;20233;-31
2022/06/22 04:20:19;;;;;;;4.67;3.63;;;;;;;;;;5021336;28;20210;-34
2022/06/22 04:22:49;;;;;;;4.97;3.80;;;;;;;;;;5031047;28;20229;-32
2022/06/22 04:25:18;;;;;;;4.37;3.87;;;;;;;;;;5031574;28;20213;-29
2022/06/22 04:27:48;;;;;;;5.67;3.80;;;;;;;;;;5025176;28;20230;-31
2022/06/22 04:30:19;;;;;;;4.13;3.43;;;;;;;;;;5019598;28;20203;-36
2022/06/22 04:32:51;;;;;;;4.13;3.72;;;;;;;;;;5023490;28;20207;-31
2022/06/22 04:35:26;;;;;;;4.80;3.50;;;;;;;;;;5026529;28;20210;-36
2022/06/22 04:37:55;;;;;;;6.18;4.43;;;;;;;;;;5031551;28;20229;-34
2022/06/22 04:40:24;;;;;;;6.33;4.17;;;;;;;;;;5031348;28;20206;-35
2022/06/22 04:42:56;;;;;;;4.33;3.77;;;;;;;;;;5012738;28;20207;-41
2022/06/22 04:45:27;;;;;;;4.18;3.65;;;;;;;;;;5028453;28;20193;-37
2022/06/22 04:47:54;;;;;;;5.00;3.37;;;;;;;;;;5028786;28;20233;-35
2022/06/22 04:50:22;;;;;;;5.57;3.97;;;;;;;;;;5034533;28;20290;-31
2022/06/22 04:52:52;;;;;;;6.47;3.73;;;;;;;;;;5034571;28;20206;-34
2022/06/22 04:55:20;;;;;;;4.30;3.88;;;;;;;;;;5034614;28;20260;-32
2022/06/22 04:57:49;;;;;;;3.93;3.53;;;;;;;;;;5018363;28;20223;-30
2022/06/22 05:00:27;;;;;;;5.63;3.57;;;;;;;;;;5036207;28;20203;-35
2022/06/22 05:02:56;;;;;;;4.27;3.40;;;;;;;;;;5030278;28;20190;-32
2022/06/22 05:05:25;;;;;;;5.03;3.72;;;;;;;;;;5034368;28;20203;-32
2022/06/22 05:07:54;;;;;;;4.67;4.13;;;;;;;;;;5034067;28;20230;-35
2022/06/22 05:10:23;;;;;;;4.77;3.63;;;;;;;;;;5034650;28;20228;-36
2022/06/22 05:12:51;;;;;;;4.27;3.77;;;;;;;;;;5026823;28;20234;-36
2022/06/22 05:15:21;;;;;;;7.10;3.90;;;;;;;;;;5034195;28;20213;-35
2022/06/22 05:17:49;;;;;;;4.93;3.90;;;;;;;;;;5028195;28;20226;-34
2022/06/22 05:20:18;;;;;;;3.80;3.50;;;;;;;;;;5027627;28;20210;-35
2022/06/22 05:22:45;;;;;;;6.37;4.10;;;;;;;;;;5032163;28;20210;-32
2022/06/22 05:25:14;;;;;;;5.83;4.07;;;;;;;;;;5032850;28;20210;-36
2022/06/22 05:27:43;;;;;;;7.33;4.80;;;;;;;;;;5029540;28;20294;-29
2022/06/22 05:30:11;;;;;;;8.05;4.65;;;;;;;;;;5033695;28;20194;-35
2022/06/22 05:32:41;;;;;;;6.67;5.10;;;;;;;;;;5031937;28;20213;-36
2022/06/22 05:35:11;;;;;;;11.65;4.65;;;;;;;;;;5028313;28;20306;-34
2022/06/22 05:37:40;;;;;;;7.43;4.40;;;;;;;;;;5034144;28;20229;-32
2022/06/22 05:40:08;;;;;;;6.83;4.60;;;;;;;;;;5033021;28;20206;-30
2022/06/22 05:42:36;;;;;;;5.68;4.43;;;;;;;;;;5030187;28;20198;-32
2022/06/22 05:45:05;;;;;;;7.35;4.82;;;;;;;;;;5034345;28;20197;-36
2022/06/22 05:47:33;;;;;;;5.93;4.60;;;;;;;;;;5027802;28;20231;-37
2022/06/22 05:50:02;;;;;;;5.28;4.55;;;;;;;;;;5033990;28;20225;-30
2022/06/22 05:52:36;;;;;;;5.63;5.00;;;;;;;;;;5034401;28;20210;-38
2022/06/22 05:55:06;;;;;;;6.53;4.45;;;;;;;;;;5032921;28;20188;-36
2022/06/22 05:57:36;;;;;;;7.85;4.40;;;;;;;;;;5020442;28;20225;-32
2022/06/22 06:00:05;;;;;;;6.47;4.50;;;;;;;;;;5033139;28;20199;-29
2022/06/22 06:02:35;;;;;;;6.78;4.90;;;;;;;;;;5031031;28;20215;-35
2022/06/22 06:05:11;;;;;;;6.65;4.63;;;;;;;;;;5032646;28;20202;-39
2022/06/22 06:07:41;;;;;;;5.30;4.75;;;;;;;;;;5031843;28;20222;-37
2022/06/22 06:10:15;;;;;;;6.50;4.95;;;;;;;;;;5075960;22;20243;-31
2022/06/22 06:12:45;;;;;;;6.65;5.00;;;;;;;;;;5040276;28;20208;-29
2022/06/22 06:15:13;;;;;;;5.53;4.40;;;;;;;;;;5051899;28;20205;-30
2022/06/22 06:17:42;;;;;;;5.60;4.55;;;;;;;;;;5060012;28;20241;-33
2022/06/22 06:20:17;;;;;;;5.45;4.57;;;;;;;;;;5059123;28;20193;-32
2022/06/22 06:22:46;;;;;;;7.80;4.88;;;;;;;;;;5072920;28;20193;-32
2022/06/22 06:28:06;;;;;;;6.40;4.55;;;;;;;;;;5035653;28;20200;-32
2022/06/22 06:30:35;;;;;;;5.60;4.95;;;;;;;;;;5050875;28;20198;-30
2022/06/22 06:33:06;;;;;;;7.20;5.00;;;;;;;;;;5055935;28;20194;-29
2022/06/22 06:35:35;;;;;;;5.40;4.90;;;;;;;;;;5058474;28;20201;-31
2022/06/22 06:38:10;;;;;;;6.40;5.27;;;;;;;;;;5070824;28;20299;-31
2022/06/22 06:40:45;;;;;;;8.68;5.68;;;;;;;;;;5071013;28;20208;-32
2022/06/22 06:43:27;;;;;;;9.83;6.00;;;;;;;;;;5047222;28;20831;-33
2022/06/22 06:45:54;;;;;;;8.00;5.97;;;;;;;;;;5041534;28;20392;-32
2022/06/22 06:48:25;;;;;;;7.13;6.43;;;;;;;;;;5046359;28;20229;-32
2022/06/22 06:50:53;;;;;;;8.50;7.00;;;;;;;;;;5049626;28;20210;-32
2022/06/22 06:53:33;;;;;;;8.75;7.35;;;;;;;;;;5050573;28;20217;-33
2022/06/22 06:56:02;;;;;;;8.27;6.40;;;;;;;;;;5044115;28;20225;-28
2022/06/22 06:58:33;;;;;;;7.33;6.10;;;;;;;;;;5048993;28;20220;-34
2022/06/22 07:01:00;;;;;;;6.63;5.37;;;;;;;;;;5042624;28;20208;-31
2022/06/22 07:03:29;;;;;;;8.07;6.47;;;;;;;;;;5044815;28;20213;-33
2022/06/22 07:05:56;;;;;;;7.20;6.37;;;;;;;;;;5064835;28;20221;-29
2022/06/22 07:08:27;;;;;;;8.03;6.40;;;;;;;;;;5070098;28;20209;-34
2022/06/22 07:10:57;;;;;;;9.13;5.70;;;;;;;;;;5070144;28;20213;-31
2022/06/22 07:13:27;;;;;;;8.50;6.05;;;;;;;;;;5048114;28;20217;-31
2022/06/22 07:15:57;;;;;;;7.10;6.03;;;;;;;;;;5052965;28;20209;-31
2022/06/22 07:18:26;;;;;;;9.03;6.87;;;;;;;;;;5043506;28;20711;-33
2022/06/22 07:20:56;;;;;;;6.77;5.80;;;;;;;;;;5056526;28;20193;-30
2022/06/22 07:23:27;;;;;;;8.53;6.10;;;;;;;;;;5070035;28;20207;-31
2022/06/22 07:25:57;;;;;;;7.00;5.30;;;;;;;;;;5070592;28;20212;-31
2022/06/22 07:28:25;;;;;;;5.57;5.03;;;;;;;;;;5041695;28;20205;-32
2022/06/22 07:30:54;;;;;;;6.60;6.00;;;;;;;;;;5049341;28;20679;-30
2022/06/22 07:33:25;;;;;;;8.93;6.20;;;;;;;;;;5039351;28;20211;-31
2022/06/22 07:35:58;;;;;;;7.97;6.80;;;;;;;;;;5052655;28;20228;-32
2022/06/22 07:38:28;;;;;;;9.53;7.50;;;;;;;;;;5049951;28;20198;-28
2022/06/22 07:43:42;;;;;;;7.20;6.53;;;;;;;;;;5045476;28;20339;-32
2022/06/22 07:46:11;;;;;;;9.57;6.77;;;;;;;;;;5069455;28;20216;-32
2022/06/22 07:48:40;;;;;;;8.03;7.17;;;;;;;;;;5049984;28;20226;-29
2022/06/22 07:51:10;;;;;;;8.30;7.30;;;;;;;;;;5049885;28;20208;-32
2022/06/22 07:53:40;;;;;;;8.67;6.83;;;;;;;;;;5069997;28;20218;-29
2022/06/22 07:56:14;;;;;;;8.67;6.67;;;;;;;;;;5054705;28;20233;-31
2022/06/22 07:58:43;;;;;;;10.00;7.20;;;;;;;;;;5056264;28;20292;-33
2022/06/22 08:01:12;;;;;;;9.80;7.00;;;;;;;;;;5065849;28;20205;-32
2022/06/22 08:03:42;;;;;;;8.47;7.57;;;;;;;;;;5049545;28;20226;-32
2022/06/22 08:06:11;;;;;;;8.10;6.27;;;;;;;;;;5051573;28;20267;-28
2022/06/22 08:08:41;;;;;;;7.00;6.27;;;;;;;;;;5068874;28;20212;-31
2022/06/22 08:11:12;;;;;;;10.07;6.83;;;;;;;;;;5046313;28;20225;-34
2022/06/22 08:13:41;;;;;;;9.23;6.67;;;;;;;;;;5047303;28;20222;-30
2022/06/22 08:16:13;;;;;;;7.65;6.93;;;;;;;;;;5049874;28;20222;-30
2022/06/22 08:18:40;;;;;;;7.60;6.67;;;;;;;;;;5044288;28;20364;-32
2022/06/22 08:21:08;;;;;;;9.37;7.03;;;;;;;;;;5048793;28;20241;-32
2022/06/22 08:23:36;;;;;;;10.52;7.35;;;;;;;;;;5070487;28;20197;-30
2022/06/22 08:26:05;;;;;;;7.10;6.40;;;;;;;;;;5066903;28;20226;-30
2022/06/22 08:28:35;;;;;;;10.95;6.80;;;;;;;;;;5041082;28;20572;-31
2022/06/22 08:31:02;;;;;;;9.38;6.90;;;;;;;;;;5069023;28;20193;-29
2022/06/22 08:33:32;;;;;;;7.43;6.65;;;;;;;;;;5051916;28;20589;-25
2022/06/22 08:36:03;;;;;;;8.88;6.85;;;;;;;;;;5064879;28;20221;-31
2022/06/22 08:38:33;;;;;;;11.07;6.43;;;;;;;;;;5056928;28;20301;-31
2022/06/22 08:41:04;;;;;;;8.43;6.90;;;;;;;;;;5052164;28;20206;-29
2022/06/22 08:43:35;;;;;;;9.07;6.47;;;;;;;;;;5052985;28;20246;-27
2022/06/22 08:46:13;;;;;;;8.10;7.25;;;;;;;;;;5059987;28;20566;-31
2022/06/22 08:48:50;;;;;;;9.15;7.20;;;;;;;;;;5048539;28;20525;-29
2022/06/22 08:51:39;;;;;;;8.95;7.18;;;;;;;;;;5063533;28;20232;-35
2022/06/22 08:54:24;;;;;;;8.52;6.55;;;;;;;;;;5072811;28;20205;-33
2022/06/22 08:56:56;;;;;;;8.48;7.30;;;;;;;;;;5046552;28;20239;-34
2022/06/22 08:59:39;;;;;;;8.70;7.75;;;;;;;;;;5059979;28;20229;-32
2022/06/22 09:02:17;;;;;;;9.32;7.47;;;;;;;;;;5067229;28;20212;-32
2022/06/22 09:05:03;;;;;;;9.97;7.70;;;;;;;;;;5055156;28;20203;-32
2022/06/22 09:07:39;;;;;;;9.00;7.22;;;;;;;;;;5052145;28;20218;-28
2022/06/22 09:10:30;;;;;;;11.23;7.55;;;;;;;;;;5052361;28;20225;-34
2022/06/22 09:13:06;;;;;;;8.30;7.37;;;;;;;;;;5048321;28;20202;-31
2022/06/22 09:15:40;;;;;;;12.07;8.00;;;;;;;;;;5060640;28;20207;-32
2022/06/22 09:18:26;;;;;;;9.93;7.53;;;;;;;;;;5054031;28;20254;-34
2022/06/22 09:21:07;;;;;;;9.73;7.32;;;;;;;;;;5054003;28;20215;-31
2022/06/22 09:23:40;;;;;;;10.35;7.78;;;;;;;;;;5071783;28;20205;-31
2022/06/22 09:26:15;;;;;;;9.60;7.75;;;;;;;;;;5072134;28;20235;-33
2022/06/22 09:28:46;;;;;;;12.23;8.35;;;;;;;;;;5051602;28;20202;-28
2022/06/22 09:31:25;;;;;;;10.95;8.10;;;;;;;;;;5053554;28;20235;-33
2022/06/22 09:34:01;;;;;;;8.15;7.35;;;;;;;;;;5044003;28;20220;-31
2022/06/22 09:36:46;;;;;;;9.32;7.40;;;;;;;;;;5048103;28;20224;-32
2022/06/22 09:39:46;;;;;;;10.13;7.80;;;;;;;;;;5032728;28;20183;-33
2022/06/22 09:42:24;;;;;;;9.55;7.38;;;;;;;;;;4971779;28;20629;-31
2022/06/22 09:45:00;;;;;;;11.18;8.60;;;;;;;;;;4989718;28;20219;-33
2022/06/22 09:47:42;;;;;;;13.30;8.85;;;;;;;;;;5019300;28;20230;-31
2022/06/22 09:50:28;;;;;;;14.00;8.00;;;;;;;;;;5041747;28;20225;-31
2022/06/22 09:53:24;;;;;;;11.67;8.60;;;;;;;;;;5060705;28;20202;-31
2022/06/22 09:59:04;;;;;;;10.38;8.60;;;;;;;;;;5059047;28;20668;-30
2022/06/22 10:01:34;;;;;;;9.98;8.98;;;;;;;;;;5054762;28;20194;-27
2022/06/22 10:04:10;;;;;;;10.02;9.02;;;;;;;;;;5053168;28;20216;-34
2022/06/22 10:06:49;;;;;;;12.63;9.15;;;;;;;;;;5061056;28;20225;-33
2022/06/22 10:09:31;;;;;;;10.60;9.18;;;;;;;;;;5073055;28;20201;-31
2022/06/22 10:12:03;;;;;;;9.68;8.70;;;;;;;;;;5047841;28;20197;-34
2022/06/22 10:14:47;;;;;;;11.35;8.30;;;;;;;;;;5059831;28;20205;-31
2022/06/22 10:17:25;;;;;;;12.75;8.48;;;;;;;;;;5064590;28;20226;-32
2022/06/22 10:19:59;;;;;;;10.55;8.63;;;;;;;;;;5051252;28;20209;-29
2022/06/22 10:22:39;;;;;;;12.18;9.13;;;;;;;;;;5063367;28;20201;-32
2022/06/22 10:25:22;;;;;;;10.45;9.02;;;;;;;;;;5048891;28;20227;-31
2022/06/22 10:27:57;;;;;;;10.95;8.63;;;;;;;;;;5053629;28;20459;-33
2022/06/22 10:30:29;;;;;;;10.15;8.95;;;;;;;;;;5059750;28;20435;-29
2022/06/22 10:33:08;;;;;;;10.85;8.23;;;;;;;;;;5044626;28;20208;-29
2022/06/22 10:35:48;;;;;;;9.67;8.67;;;;;;;;;;5049603;28;20212;-31
2022/06/22 10:38:24;;;;;;;9.88;8.95;;;;;;;;;;5065329;28;20254;-32
2022/06/22 10:46:46;;;;;;;12.33;9.50;;;;;;;;;;5068888;28;20248;-31
2022/06/22 10:49:29;;;;;;;10.57;9.07;;;;;;;;;;5040147;28;20205;-34
2022/06/22 10:52:19;;;;;;;12.10;9.20;;;;;;;;;;5057996;28;20205;-31
2022/06/22 10:55:02;;;;;;;12.10;8.80;;;;;;;;;;4991626;28;20238;-30
2022/06/22 10:57:35;;;;;;;11.10;9.90;;;;;;;;;;5048159;28;20233;-29
2022/06/22 11:00:15;;;;;;;11.18;9.38;;;;;;;;;;5050956;28;20190;-32
2022/06/22 11:03:00;;;;;;;10.65;9.23;;;;;;;;;;5044715;28;20220;-33
2022/06/22 11:05:42;;;;;;;11.93;9.37;;;;;;;;;;5053134;28;20212;-28
2022/06/22 11:08:24;;;;;;;10.60;8.93;;;;;;;;;;5039699;28;20202;-34
2022/06/22 11:10:55;;;;;;;9.67;8.33;;;;;;;;;;5048194;28;20452;-31
2022/06/22 11:13:34;;;;;;;13.60;9.10;;;;;;;;;;5043581;28;20213;-32
2022/06/22 11:16:16;;;;;;;12.57;9.57;;;;;;;;;;5060728;28;20232;-30
2022/06/22 11:18:51;;;;;;;10.10;8.75;;;;;;;;;;5051111;28;20267;-32
2022/06/22 11:21:24;;;;;;;14.77;9.87;;;;;;;;;;5045808;28;20199;-31
2022/06/22 11:24:05;;;;;;;11.10;10.00;;;;;;;;;;5050600;28;20206;-29
2022/06/22 11:32:33;;;;;;;10.63;9.60;;;;;;;;;;5049228;28;20263;-30
2022/06/22 11:35:24;;;;;;;12.30;9.47;;;;;;;;;;5049106;28;20204;-33
2022/06/22 11:37:55;;;;;;;10.65;9.13;;;;;;;;;;5062225;28;20221;-32
2022/06/22 11:40:34;;;;;;;12.40;9.57;;;;;;;;;;5070969;28;20196;-29
2022/06/22 11:43:05;;;;;;;9.77;8.70;;;;;;;;;;5048427;28;20209;-32
2022/06/22 11:45:51;;;;;;;10.57;8.13;;;;;;;;;;5048190;28;20209;-32
2022/06/22 11:48:41;;;;;;;10.53;9.23;;;;;;;;;;5047774;28;20205;-33
2022/06/22 11:51:13;;;;;;;11.57;9.67;;;;;;;;;;5055139;28;20278;-32
2022/06/22 11:53:54;;;;;;;9.55;8.55;;;;;;;;;;5052167;28;20220;-30
2022/06/22 11:56:27;;;;;;;11.03;8.80;;;;;;;;;;5044086;28;20229;-33
2022/06/22 11:59:04;;;;;;;10.98;9.27;;;;;;;;;;5064597;28;20205;-32
2022/06/22 12:01:44;;;;;;;12.07;8.63;;;;;;;;;;5074199;28;20201;-30
2022/06/22 12:04:27;;;;;;;12.55;9.98;;;;;;;;;;5049724;28;20287;-31
2022/06/22 12:07:07;;;;;;;11.00;9.07;;;;;;;;;;5070311;28;20232;-31
2022/06/22 12:09:43;;;;;;;9.25;8.00;;;;;;;;;;5050688;28;20206;-32
2022/06/22 12:17:34;;;;;;;11.10;9.90;;;;;;;;;;5055919;28;20474;-30
2022/06/22 12:20:08;;;;;;;12.75;9.32;;;;;;;;;;5066379;28;20208;-33
2022/06/22 12:22:41;;;;;;;11.07;8.23;;;;;;;;;;5057304;28;20292;-31
2022/06/22 12:25:20;;;;;;;10.98;7.57;;;;;;;;;;5055529;28;20280;-33
2022/06/22 12:27:54;;;;;;;7.95;5.55;;;;;;;;;;5054190;28;20290;-35
2022/06/22 12:30:28;;;;;;;6.32;5.40;;;;;;;;;;5068429;28;20226;-38
2022/06/22 12:32:57;;;;;;;6.18;4.85;;;;;;;;;;5066969;28;20197;-32
2022/06/22 12:35:36;;;;;;;5.78;4.90;;;;;;;;;;5062248;28;20288;-32
2022/06/22 12:38:07;;;;;;;7.05;5.10;;;;;;;;;;5062172;28;20285;-32
2022/06/22 12:40:45;;;;;;;7.38;5.70;;;;;;;;;;5056598;28;20204;-38
2022/06/22 12:43:30;;;;;;;7.95;4.85;;;;;;;;;;5063987;28;20233;-37
2022/06/22 12:45:58;;;;;;;6.70;5.10;;;;;;;;;;5044399;28;20224;-32
2022/06/22 12:48:40;;;;;;;6.87;5.37;;;;;;;;;;5065077;28;20198;-32
2022/06/22 12:51:17;;;;;;;8.02;4.85;;;;;;;;;;5067769;28;20304;-30
2022/06/22 12:53:48;;;;;;;6.30;5.60;;;;;;;;;;5073430;28;20219;-34
2022/06/22 12:56:17;;;;;;;11.30;5.32;;;;;;;;;;5071962;28;20229;-37
2022/06/22 12:58:47;;;;;;;6.85;5.25;;;;;;;;;;5070678;28;20209;-29
2022/06/22 13:01:14;;;;;;;6.70;4.32;;;;;;;;;;5054808;28;20193;-33
2022/06/22 13:03:44;;;;;;;7.60;4.68;;;;;;;;;;5061373;28;20209;-38
2022/06/22 13:06:11;;;;;;;7.15;4.82;;;;;;;;;;5066716;28;20290;-32
2022/06/22 13:08:39;;;;;;;9.00;4.40;;;;;;;;;;5072564;28;20197;-32
2022/06/22 13:11:08;;;;;;;9.23;4.13;;;;;;;;;;5073662;28;20240;-36
2022/06/22 13:13:50;;;;;;;9.65;3.88;;;;;;;;;;5057235;28;20222;-35
2022/06/22 13:16:20;;;;;;;6.00;3.70;;;;;;;;;;5061149;28;20217;-38
2022/06/22 13:18:52;;;;;;;6.43;3.60;;;;;;;;;;5062554;28;20202;-30
2022/06/22 13:21:22;;;;;;;10.07;4.05;;;;;;;;;;5067627;28;20197;-36
2022/06/22 13:23:54;;;;;;;7.65;3.60;;;;;;;;;;5074042;28;20294;-29
2022/06/22 13:26:26;;;;;;;6.70;3.47;;;;;;;;;;5063518;28;20225;-32
2022/06/22 13:28:57;;;;;;;6.85;3.72;;;;;;;;;;5070347;28;20200;-39
2022/06/22 13:31:26;;;;;;;7.80;4.00;;;;;;;;;;5054136;28;20221;-31
2022/06/22 13:33:56;;;;;;;6.38;3.15;;;;;;;;;;5054120;28;20193;-33
2022/06/22 13:36:27;;;;;;;5.75;3.30;;;;;;;;;;5058932;28;20226;-30
2022/06/22 13:39:01;;;;;;;7.80;3.60;;;;;;;;;;5054601;28;20206;-35
2022/06/22 13:41:35;;;;;;;7.50;3.75;;;;;;;;;;5055898;28;20198;-33
2022/06/22 13:44:14;;;;;;;5.40;3.03;;;;;;;;;;5057712;28;20250;-36
2022/06/22 13:46:50;;;;;;;5.57;3.92;;;;;;;;;;5065347;28;20221;-34
2022/06/22 13:49:21;;;;;;;9.63;3.67;;;;;;;;;;5058267;28;20204;-35
2022/06/22 13:51:57;;;;;;;5.80;3.63;;;;;;;;;;5065898;28;20214;-31
2022/06/22 13:54:33;;;;;;;6.53;3.65;;;;;;;;;;5074286;28;20194;-32
2022/06/22 13:57:03;;;;;;;5.63;3.83;;;;;;;;;;5065471;28;20224;-30
2022/06/22 13:59:35;;;;;;;11.82;4.03;;;;;;;;;;5062272;28;20236;-35
2022/06/22 14:02:09;;;;;;;6.75;3.35;;;;;;;;;;5053909;28;20190;-29
2022/06/22 14:04:41;;;;;;;9.40;3.90;;;;;;;;;;5061501;28;20219;-31
2022/06/22 14:07:12;;;;;;;6.40;3.33;;;;;;;;;;5062415;28;20304;-37
2022/06/22 14:09:45;;;;;;;6.93;3.78;;;;;;;;;;5054334;28;20194;-34
2022/06/22 14:12:15;;;;;;;6.82;3.22;;;;;;;;;;5054777;28;20209;-31
2022/06/22 14:14:47;;;;;;;7.63;3.60;;;;;;;;;;5066477;28;20638;-30
2022/06/22 14:17:18;;;;;;;8.45;3.65;;;;;;;;;;5059685;28;20225;-33
2022/06/22 14:19:49;;;;;;;6.53;3.30;;;;;;;;;;5072900;28;20205;-33
2022/06/22 14:22:20;;;;;;;6.57;3.40;;;;;;;;;;5073368;28;20389;-34
2022/06/22 14:24:50;;;;;;;5.53;3.42;;;;;;;;;;5073519;28;20201;-34
2022/06/22 14:27:25;;;;;;;7.60;4.20;;;;;;;;;;5065799;28;20226;-32
2022/06/22 14:30:05;;;;;;;8.45;4.10;;;;;;;;;;5069688;28;20205;-39
2022/06/22 14:32:40;;;;;;;10.70;3.30;;;;;;;;;;5064390;28;20225;-38
2022/06/22 14:35:19;;;;;;;4.40;3.10;;;;;;;;;;5062899;28;20192;-30
2022/06/22 14:37:51;;;;;;;8.38;3.67;;;;;;;;;;5073041;28;20231;-32
2022/06/22 14:40:22;;;;;;;4.40;3.00;;;;;;;;;;5071402;28;20220;-34
2022/06/22 14:42:52;;;;;;;5.38;3.33;;;;;;;;;;5063003;28;20206;-38
2022/06/22 14:45:22;;;;;;;11.88;3.90;;;;;;;;;;5055280;28;20212;-31
2022/06/22 14:47:55;;;;;;;6.45;2.92;;;;;;;;;;5059097;28;20228;-34
2022/06/22 14:50:26;;;;;;;7.03;3.20;;;;;;;;;;5064748;28;20206;-37
2022/06/22 14:52:56;;;;;;;5.30;3.13;;;;;;;;;;5053776;28;20200;-35
2022/06/22 14:55:29;;;;;;;7.30;3.08;;;;;;;;;;5053025;28;20211;-30
2022/06/22 14:58:01;;;;;;;8.40;3.13;;;;;;;;;;5060750;28;20221;-34
2022/06/22 15:00:34;;;;;;;7.57;2.90;;;;;;;;;;5056855;28;20237;-34
2022/06/22 15:03:06;;;;;;;9.57;3.20;;;;;;;;;;5057630;28;20208;-33
2022/06/22 15:05:36;;;;;;;7.45;3.80;;;;;;;;;;5067796;28;20205;-33
2022/06/22 15:08:09;;;;;;;7.40;2.80;;;;;;;;;;5070852;28;20255;-33
2022/06/22 15:10:41;;;;;;;11.32;3.78;;;;;;;;;;5064515;28;20212;-30
2022/06/22 15:13:10;;;;;;;7.78;2.80;;;;;;;;;;5051203;28;20214;-36
2022/06/22 15:15:43;;;;;;;9.23;3.42;;;;;;;;;;5061510;28;20225;-36
2022/06/22 15:18:23;;;;;;;8.15;3.55;;;;;;;;;;5067145;28;20202;-35
2022/06/22 15:20:54;;;;;;;7.95;3.08;;;;;;;;;;5055417;28;20205;-36
2022/06/22 15:23:22;;;;;;;10.55;4.07;;;;;;;;;;5073087;28;20207;-31
2022/06/22 15:25:58;;;;;;;7.93;3.40;;;;;;;;;;5073070;28;20209;-33
2022/06/22 15:28:30;;;;;;;7.35;3.05;;;;;;;;;;5059926;28;20285;-33
2022/06/22 15:31:03;;;;;;;7.30;3.08;;;;;;;;;;5056184;28;20299;-31
2022/06/22 15:33:33;;;;;;;8.68;3.30;;;;;;;;;;5059686;28;20209;-32
2022/06/22 15:36:03;;;;;;;7.65;2.90;;;;;;;;;;5068901;28;20221;-31
2022/06/22 15:38:38;;;;;;;7.32;3.47;;;;;;;;;;5073054;28;20208;-30
2022/06/22 15:41:08;;;;;;;6.10;3.10;;;;;;;;;;5071931;28;20184;-34
2022/06/22 15:43:56;;;;;;;8.20;3.47;;;;;;;;;;5059000;28;20213;-33
2022/06/22 15:46:32;;;;;;;6.50;3.17;;;;;;;;;;5072154;28;20263;-31